Teddy Meyer — WDF9635 — position and weather

sailwx.info

Track history (hours):
 
Tides and Currents Weather Stations Pressure Air Temp Water Temp Dewpoint Dewpoint Depression Visibility Wind Speed Wind Dir Waves Ship Positions

Teddy Meyer

Owner: LeBeouf Bros. Towing, LLC, Houma, LA. More information available from US FCC via Universal Licensing System and Coast Guard Vessel Documentation Center.

Last reported at 2016-Jun-27 09:29 UTC. Time now 2016-Jun-27 15:06 UTC.
Position N 29°33' W 090°55'.

; draft 3 m.

MMSI: 367507220.

Date/timePositionNaut miles runAvg speedWind from/ knotsBaromVisibWave heightAir tempDewpointWater temp
2016-Jun-27 09:29N 29°33' W 090°55'4 4.5
2016-Jun-27 08:32N 29°32' W 090°50'4 4.1
2016-Jun-27 07:34N 29°33' W 090°46'3 2.9
2016-Jun-27 06:33N 29°35' W 090°43'3 2.5
2016-Jun-27 05:33N 29°37' W 090°42'3 3.4
2016-Jun-27 04:33N 29°35' W 090°38'4 3.8
2016-Jun-27 03:33N 29°34' W 090°34'9 4.3
2016-Jun-27 01:29N 29°33' W 090°24'19 3.8
2016-Jun-26 20:33N 29°45' W 090°08'3 2.6
2016-Jun-26 19:26N 29°46' W 090°05'1 0.7
2016-Jun-26 18:15N 29°47' W 090°04'3 3.8
2016-Jun-26 17:33N 29°50' W 090°04'3 2.7
2016-Jun-26 16:33N 29°51' W 090°01'3 3.3
2016-Jun-26 15:33N 29°54' W 089°59'1 1.2
2016-Jun-26 14:33N 29°55' W 089°58'0 0.3
2016-Jun-26 13:33N 29°55' W 089°58'0 0.0
2016-Jun-26 12:33N 29°55' W 089°58'0 0.0
2016-Jun-26 11:31N 29°55' W 089°58'0 0.0
2016-Jun-26 10:33N 29°55' W 089°58'0 0.0
2016-Jun-26 09:33N 29°55' W 089°58'1 0.6
2016-Jun-26 08:33N 29°56' W 089°59'4 4.5
2016-Jun-26 07:33N 29°55' W 090°04'4 4.5
2016-Jun-26 06:33N 29°57' W 090°09'  
Track history (hours):
 
Tides and Currents Weather Stations Pressure Air Temp Water Temp Dewpoint Dewpoint Depression Visibility Wind Speed Wind Dir Waves Ship Positions

Teddy Meyer

Owner: LeBeouf Bros. Towing, LLC, Houma, LA. More information available from US FCC via Universal Licensing System and Coast Guard Vessel Documentation Center.

Last reported at 2016-Jun-27 09:29 UTC. Time now 2016-Jun-27 15:06 UTC.
Position N 29°33' W 090°55'.

; draft 3 m.

MMSI: 367507220.

Date/timePositionNaut miles runAvg speedWind from/ knotsBaromVisibWave heightAir tempDewpointWater temp
2016-Jun-27 09:29N 29°33' W 090°55'4 4.5
2016-Jun-27 08:32N 29°32' W 090°50'4 4.1
2016-Jun-27 07:34N 29°33' W 090°46'3 2.9
2016-Jun-27 06:33N 29°35' W 090°43'3 2.5
2016-Jun-27 05:33N 29°37' W 090°42'3 3.4
2016-Jun-27 04:33N 29°35' W 090°38'4 3.8
2016-Jun-27 03:33N 29°34' W 090°34'9 4.3
2016-Jun-27 01:29N 29°33' W 090°24'19 3.8
2016-Jun-26 20:33N 29°45' W 090°08'3 2.6
2016-Jun-26 19:26N 29°46' W 090°05'1 0.7
2016-Jun-26 18:15N 29°47' W 090°04'3 3.8
2016-Jun-26 17:33N 29°50' W 090°04'3 2.7
2016-Jun-26 16:33N 29°51' W 090°01'3 3.3
2016-Jun-26 15:33N 29°54' W 089°59'1 1.2
2016-Jun-26 14:33N 29°55' W 089°58'0 0.3
2016-Jun-26 13:33N 29°55' W 089°58'0 0.0
2016-Jun-26 12:33N 29°55' W 089°58'0 0.0
2016-Jun-26 11:31N 29°55' W 089°58'0 0.0
2016-Jun-26 10:33N 29°55' W 089°58'0 0.0
2016-Jun-26 09:33N 29°55' W 089°58'1 0.6
2016-Jun-26 08:33N 29°56' W 089°59'4 4.5
2016-Jun-26 07:33N 29°55' W 090°04'4 4.5
2016-Jun-26 06:33N 29°57' W 090°09'  

Dump ship's entire track history